Time;durP1;ratioP1;P1;durP2;ratioP2;P2;SDS_P1;SDS_P2;PMS_P1;PMS_P2;Temp;Humidity;BMP_temperature;BMP_pressure;BME280_temperature;BME280_humidity;BME280_pressure;Samples;Min_cycle;Max_cycle;Signal;HPM_P1;HPM_P2
2021/12/14 00:01:46;;;;;;;31.93;16.80;;;;;;;0.63;100.00;99982.87;1633607;86;20963;-73
2021/12/14 00:04:19;;;;;;;31.42;14.80;;;;;;;0.61;100.00;99989.86;1635339;86;20964;-72
2021/12/14 00:06:51;;;;;;;36.30;16.93;;;;;;;0.63;100.00;99997.73;1613241;87;20980;-72
2021/12/14 00:09:27;;;;;;;36.08;17.00;;;;;;;0.61;100.00;99995.27;1616905;87;21086;-73
2021/12/14 00:17:33;;;;;;;34.15;16.40;;;;;;;0.60;100.00;99994.16;1642830;86;21079;-74
2021/12/14 00:20:08;;;;;;;29.98;16.30;;;;;;;0.59;100.00;99990.63;1638157;86;21014;-74
2021/12/14 00:24:06;;;;;;;32.10;15.58;;;;;;;0.61;100.00;99991.22;1635681;86;21117;-74
2021/12/14 00:25:08;;;;;;;33.70;16.45;;;;;;;0.63;100.00;99987.74;1628130;86;21700;-74
2021/12/14 00:27:35;;;;;;;32.03;16.48;;;;;;;0.66;100.00;99989.97;1637905;86;21104;-74
2021/12/14 00:30:10;;;;;;;35.15;17.00;;;;;;;0.67;100.00;99988.09;1635745;86;21078;-74
2021/12/14 00:32:38;;;;;;;37.65;18.05;;;;;;;0.68;100.00;99987.03;1632614;86;21064;-76
2021/12/14 00:35:14;;;;;;;33.28;15.80;;;;;;;0.65;100.00;99991.03;1635848;86;21493;-76
2021/12/14 00:37:46;;;;;;;36.33;18.77;;;;;;;0.63;100.00;99989.62;1638141;86;21646;-75
2021/12/14 00:40:17;;;;;;;;;;;;;;;0.60;100.00;99988.22;1636420;86;21180;-74
2021/12/14 00:42:46;;;;;;;34.53;16.12;;;;;;;0.59;100.00;99988.46;1634894;86;20097;-75
2021/12/14 00:45:19;;;;;;;34.03;16.30;;;;;;;0.59;100.00;99988.46;1618396;87;21020;-77
2021/12/14 00:47:49;;;;;;;28.65;14.23;;;;;;;0.57;100.00;99991.97;1630983;86;21050;-76
2021/12/14 00:50:26;;;;;;;26.57;14.60;;;;;;;0.54;100.00;99990.56;1625199;86;21025;-77
2021/12/14 00:52:55;;;;;;;30.00;15.45;;;;;;;0.53;100.00;99988.92;1619927;86;20955;-76
2021/12/14 00:55:32;;;;;;;29.32;14.63;;;;;;;0.57;100.00;99990.09;1635354;86;21038;-73
2021/12/14 00:58:04;;;;;;;26.45;13.58;;;;;;;0.59;100.00;99993.34;1647741;86;21037;-74
2021/12/14 01:00:41;;;;;;;26.60;13.88;;;;;;;0.60;100.00;99993.63;1621322;87;21015;-74
2021/12/14 01:03:14;;;;;;;25.32;13.43;;;;;;;0.58;100.00;100001.16;1567822;89;21530;-74
2021/12/14 01:05:47;;;;;;;27.70;13.62;;;;;;;0.58;100.00;99987.64;1637404;86;22058;-74
2021/12/14 01:08:24;;;;;;;25.12;13.43;;;;;;;0.59;100.00;99996.03;1634762;86;21157;-75
2021/12/14 01:11:06;;;;;;;23.62;13.55;;;;;;;0.59;100.00;99998.74;1622057;87;21080;-74
2021/12/14 01:13:51;;;;;;;23.32;12.93;;;;;;;0.60;100.00;99994.98;1616226;86;21582;-74
2021/12/14 01:16:31;;;;;;;22.80;13.50;;;;;;;0.60;100.00;99996.33;1626649;86;21581;-74
2021/12/14 01:19:02;;;;;;;28.00;13.45;;;;;;;0.57;100.00;99996.84;1572327;89;21130;-73
2021/12/14 01:22:01;;;;;;;23.25;12.47;;;;;;;0.55;100.00;100004.36;1575141;89;21125;-73
2021/12/14 01:24:08;;;;;;;22.25;12.40;;;;;;;0.57;100.00;100009.00;1584608;88;21540;-73
2021/12/14 01:26:40;;;;;;;26.07;13.50;;;;;;;0.55;100.00;100003.54;1559489;89;21270;-73
2021/12/14 01:29:09;;;;;;;24.15;13.25;;;;;;;0.54;100.00;99999.20;1592536;89;21573;-73
2021/12/14 01:31:41;;;;;;;;;;;;;;;0.56;100.00;100002.48;1609722;88;20982;-74
2021/12/14 01:34:16;;;;;;;21.73;13.13;;;;;;;0.56;100.00;100009.23;1598749;88;20107;-74
2021/12/14 01:36:50;;;;;;;24.23;12.95;;;;;;;0.52;100.00;99999.97;1596854;89;26451;-74
2021/12/14 01:42:19;;;;;;;21.37;11.93;;;;;;;0.55;100.00;100009.77;1562469;89;21569;-74
2021/12/14 01:45:12;;;;;;;22.27;11.25;;;;;;;0.58;100.00;100008.44;1616087;87;21168;-74
2021/12/14 01:47:51;;;;;;;23.85;12.85;;;;;;;0.55;100.00;100009.77;1620284;87;21586;-74
2021/12/14 01:50:37;;;;;;;21.75;12.45;;;;;;;0.55;100.00;100010.30;1636136;86;20991;-73
2021/12/14 01:53:16;;;;;;;19.77;12.00;;;;;;;0.53;100.00;100013.23;1610961;86;21057;-73
2021/12/14 01:55:53;;;;;;;23.52;13.10;;;;;;;0.51;100.00;100014.00;1632427;86;21224;-73
2021/12/14 01:58:18;;;;;;;20.12;11.43;;;;;;;0.48;100.00;100018.53;1608103;88;22461;-73
2021/12/14 02:00:53;;;;;;;20.65;11.57;;;;;;;0.47;100.00;100015.53;1608224;89;20934;-73
2021/12/14 02:03:25;;;;;;;29.15;12.70;;;;;;;0.45;100.00;100014.13;1608167;88;20988;-73
2021/12/14 02:05:57;;;;;;;20.02;11.83;;;;;;;0.44;100.00;100013.31;1610104;89;20977;-73
2021/12/14 02:08:33;;;;;;;21.20;11.95;;;;;;;0.45;100.00;100015.48;1611977;89;20894;-72
2021/12/14 02:11:05;;;;;;;17.10;10.50;;;;;;;0.46;100.00;100011.72;1590772;89;21004;-71
2021/12/14 02:13:48;;;;;;;23.63;11.90;;;;;;;0.46;100.00;100009.02;1591106;89;21008;-72
2021/12/14 02:16:20;;;;;;;23.02;11.40;;;;;;;0.44;100.00;100010.61;1610385;89;21437;-73
2021/12/14 02:18:51;;;;;;;18.10;10.80;;;;;;;0.41;100.00;100011.61;1610724;88;21555;-73
2021/12/14 02:21:23;;;;;;;;;;;;;;;0.40;100.00;100010.80;1613024;88;21125;-74
2021/12/14 02:23:55;;;;;;;19.15;10.40;;;;;;;0.39;100.00;100012.38;1570785;89;20145;-73
2021/12/14 02:26:27;;;;;;;17.50;10.30;;;;;;;0.36;100.00;100015.03;1608950;89;20977;-72
2021/12/14 02:29:02;;;;;;;19.07;11.05;;;;;;;0.36;100.00;100011.50;1587270;89;21486;-72
2021/12/14 02:31:33;;;;;;;21.02;11.10;;;;;;;0.34;100.00;100018.50;1609884;89;21639;-73
2021/12/14 02:34:05;;;;;;;25.82;10.90;;;;;;;0.31;100.00;100015.73;1591082;89;20980;-73
2021/12/14 02:36:45;;;;;;;19.17;10.45;;;;;;;0.34;100.00;100014.45;1610561;88;21421;-73
2021/12/14 02:39:48;;;;;;;17.40;10.72;;;;;;;0.34;100.00;100021.20;1611483;88;21560;-72
2021/12/14 02:42:06;;;;;;;16.48;10.03;;;;;;;0.33;100.00;100016.85;1608767;89;20945;-72
2021/12/14 02:44:37;;;;;;;17.02;9.80;;;;;;;0.29;100.00;100019.20;1610697;88;20949;-77
2021/12/14 02:47:13;;;;;;;16.67;9.88;;;;;;;0.26;100.00;100018.33;1610668;89;21551;-78
2021/12/14 02:49:43;;;;;;;15.43;9.58;;;;;;;0.25;100.00;100020.73;1610594;88;20976;-77
2021/12/14 02:52:20;;;;;;;16.75;8.90;;;;;;;0.25;100.00;100018.56;1610695;88;20962;-78
2021/12/14 02:54:50;;;;;;;14.60;9.15;;;;;;;0.25;100.00;100017.22;1610161;89;20973;-77
2021/12/14 02:57:31;;;;;;;15.30;8.48;;;;;;;0.24;100.00;100022.32;1610922;89;21496;-76
2021/12/14 03:00:04;;;;;;;;;;;;;;;0.24;100.00;100016.39;1593518;89;21586;-76
2021/12/14 03:02:32;;;;;;;17.70;8.75;;;;;;;0.22;100.00;100019.03;1610062;89;20130;-74
2021/12/14 03:05:09;;;;;;;17.82;9.13;;;;;;;0.21;100.00;100021.44;1610745;88;21584;-80
2021/12/14 03:07:46;;;;;;;17.37;9.08;;;;;;;0.23;100.00;100019.33;1610797;88;20937;-77
2021/12/14 03:12:53;;;;;;;14.33;7.95;;;;;;;0.21;100.00;100025.50;1609909;89;21444;-78
2021/12/14 03:15:31;;;;;;;13.22;8.00;;;;;;;0.19;100.00;100023.03;1590526;89;21036;-76
2021/12/14 03:18:05;;;;;;;14.93;8.53;;;;;;;0.19;100.00;100024.91;1610473;88;21124;-77
2021/12/14 03:20:37;;;;;;;15.32;8.83;;;;;;;0.18;100.00;100024.09;1610724;89;26493;-76
2021/12/14 03:23:09;;;;;;;16.77;9.03;;;;;;;0.20;100.00;100026.55;1610428;89;20976;-77
2021/12/14 03:25:43;;;;;;;18.12;8.93;;;;;;;0.20;100.00;100023.32;1609950;89;21213;-76
2021/12/14 03:28:13;;;;;;;14.87;8.33;;;;;;;0.20;100.00;100026.55;1611988;88;20983;-76
2021/12/14 03:30:58;;;;;;;16.52;9.20;;;;;;;0.22;100.00;100029.31;1609843;88;21596;-75
2021/12/14 03:33:34;;;;;;;14.18;8.73;;;;;;;0.23;100.00;100025.55;1591071;89;21455;-75
2021/12/14 03:36:20;;;;;;;13.72;8.85;;;;;;;0.24;100.00;100024.49;1611538;88;21032;-76
2021/12/14 03:39:02;;;;;;;13.35;7.87;;;;;;;0.25;100.00;100028.02;1587111;89;21194;-75
2021/12/14 03:41:42;;;;;;;12.60;8.18;;;;;;;0.23;100.00;100029.60;1611761;88;21492;-76
2021/12/14 03:44:14;;;;;;;13.95;8.50;;;;;;;0.23;100.00;100024.20;1613696;88;21082;-75
2021/12/14 03:46:51;;;;;;;14.55;9.00;;;;;;;0.24;100.00;100030.42;1617208;87;21006;-75
2021/12/14 03:49:29;;;;;;;14.40;8.95;;;;;;;0.25;100.00;100023.96;1643605;85;21598;-75
2021/12/14 03:52:00;;;;;;;13.38;7.87;;;;;;;0.27;100.00;100023.20;1616225;86;21088;-77
2021/12/14 03:54:31;;;;;;;12.03;7.58;;;;;;;0.27;100.00;100029.95;1613213;87;21143;-76
2021/12/14 03:56:59;;;;;;;13.65;8.28;;;;;;;0.25;100.00;100029.36;1600361;87;21053;-77
2021/12/14 03:59:28;;;;;;;14.87;9.08;;;;;;;0.23;100.00;100024.20;1594478;88;21498;-75
2021/12/14 04:02:03;;;;;;;13.10;7.50;;;;;;;0.27;100.00;100025.90;1620572;87;21620;-77
2021/12/14 04:04:43;;;;;;;13.05;7.62;;;;;;;0.26;100.00;100026.95;1610790;88;49338;-77
2021/12/14 04:07:13;;;;;;;16.15;8.95;;;;;;;0.24;100.00;100025.84;1598588;88;21136;-77
2021/12/14 04:09:43;;;;;;;16.57;9.28;;;;;;;0.22;100.00;100027.95;1606961;87;21026;-78
2021/12/14 04:12:13;;;;;;;14.07;8.43;;;;;;;0.24;100.00;100029.07;1613933;87;21248;-78
2021/12/14 04:14:50;;;;;;;17.00;9.13;;;;;;;0.24;100.00;100034.47;1602617;87;21015;-77
2021/12/14 04:17:22;;;;;;;12.80;7.95;;;;;;;0.23;100.00;100039.58;1581671;88;21054;-75
2021/12/14 04:19:52;;;;;;;15.45;7.65;;;;;;;0.22;100.00;100037.41;1626697;86;21016;-74
2021/12/14 04:22:24;;;;;;;11.93;7.60;;;;;;;0.23;100.00;100038.23;1625723;87;21100;-73
2021/12/14 04:24:56;;;;;;;12.40;7.75;;;;;;;0.21;100.00;100038.47;1625871;86;21515;-73
2021/12/14 04:27:31;;;;;;;13.55;7.75;;;;;;;0.22;100.00;100041.98;1622424;87;20935;-74
2021/12/14 04:30:03;;;;;;;13.08;7.87;;;;;;;0.22;100.00;100040.11;1624677;87;21115;-74
2021/12/14 04:32:36;;;;;;;14.58;8.45;;;;;;;0.22;100.00;100034.70;1629803;87;20976;-73
2021/12/14 04:35:12;;;;;;;10.75;6.70;;;;;;;0.21;100.00;100037.64;1628590;87;20988;-74
2021/12/14 04:37:43;;;;;;;11.57;7.30;;;;;;;0.23;100.00;100030.95;1625989;87;21095;-75
2021/12/14 04:51:54;;;;;;;14.70;8.03;;;;;;;0.25;100.00;100038.28;1628005;87;21560;-76
2021/12/14 04:54:08;;;;;;;11.90;7.17;;;;;;;0.19;100.00;100043.28;1576894;90;21003;-74
2021/12/14 04:56:40;;;;;;;12.28;7.05;;;;;;;0.17;100.00;100044.57;1587247;89;21561;-74
2021/12/14 04:59:23;;;;;;;12.98;8.05;;;;;;;0.14;100.00;100047.74;1592613;88;23094;-74
2021/12/14 05:01:55;;;;;;;12.65;7.65;;;;;;;0.13;100.00;100053.67;1563132;89;20982;-73
2021/12/14 05:04:29;;;;;;;12.05;7.28;;;;;;;0.11;100.00;100049.56;1579127;89;21072;-74
2021/12/14 05:07:25;;;;;;;16.05;7.60;;;;;;;0.11;100.00;100050.91;1595919;89;21525;-74
2021/12/14 05:09:38;;;;;;;14.18;7.92;;;;;;;0.10;100.00;100050.09;1594831;89;20926;-74
2021/12/14 05:12:16;;;;;;;15.88;8.35;;;;;;;0.12;100.00;100060.13;1564531;90;21473;-75
2021/12/14 05:14:49;;;;;;;12.93;7.28;;;;;;;0.12;100.00;100060.13;1582011;89;21039;-74
2021/12/14 05:17:22;;;;;;;13.70;7.65;;;;;;;0.12;100.00;100063.36;1590030;89;21512;-74
2021/12/14 05:19:55;;;;;;;12.13;7.55;;;;;;;0.10;100.00;100070.34;1606204;89;21052;-74
2021/12/14 05:22:31;;;;;;;10.55;6.42;;;;;;;0.10;100.00;100067.64;1606018;87;21168;-73
2021/12/14 05:25:07;;;;;;;11.10;6.50;;;;;;;0.12;100.00;100072.80;1593893;89;20925;-76
2021/12/14 05:27:42;;;;;;;12.63;7.90;;;;;;;0.13;100.00;100073.92;1575278;89;21662;-75
2021/12/14 05:30:16;;;;;;;14.15;7.55;;;;;;;0.13;100.00;100073.09;1564195;89;21168;-75
2021/12/14 05:33:04;;;;;;;12.23;6.90;;;;;;;0.13;100.00;100075.80;1575368;89;21624;-75
2021/12/14 05:35:32;;;;;;;16.93;9.10;;;;;;;0.14;100.00;100072.04;1589637;88;21182;-74
2021/12/14 05:38:14;;;;;;;12.50;7.25;;;;;;;0.12;100.00;100074.97;1588502;89;21061;-75
2021/12/14 05:43:20;;;;;;;16.02;8.78;;;;;;;0.10;100.00;100067.64;1577031;90;21059;-74
2021/12/14 05:46:11;;;;;;;13.85;8.60;;;;;;;0.08;100.00;100065.70;1586556;88;21193;-73
2021/12/14 05:48:48;;;;;;;16.25;8.40;;;;;;;0.07;100.00;100072.69;1608462;88;21751;-74
2021/12/14 05:51:17;;;;;;;16.52;9.53;;;;;;;0.06;100.00;100076.44;1595870;87;21579;-72
2021/12/14 05:53:48;;;;;;;16.10;9.43;;;;;;;0.07;100.00;100076.73;1625884;87;21036;-71
2021/12/14 05:56:18;;;;;;;14.80;9.20;;;;;;;0.08;100.00;100085.13;1625557;87;21093;-71
2021/12/14 05:58:49;;;;;;;16.97;9.83;;;;;;;0.08;100.00;100084.59;1624082;87;20999;-71
2021/12/14 06:01:23;;;;;;;13.95;8.68;;;;;;;0.11;100.00;100084.66;1623322;86;21147;-73
2021/12/14 06:04:00;;;;;;;16.27;10.10;;;;;;;0.13;100.00;100083.37;1631440;86;21143;-79
2021/12/14 06:06:37;;;;;;;17.95;8.90;;;;;;;0.11;100.00;100086.83;1626845;86;21026;-77
2021/12/14 06:09:18;;;;;;;16.37;8.78;;;;;;;0.10;100.00;100091.94;1638470;86;20981;-76
2021/12/14 06:12:15;;;;;;;17.70;9.03;;;;;;;0.10;100.00;100085.72;1636697;87;21660;-75
2021/12/14 06:14:52;;;;;;;20.00;9.88;;;;;;;0.13;100.00;100094.17;1622223;86;21517;-76
2021/12/14 06:17:19;;;;;;;15.75;9.78;;;;;;;0.13;100.00;100096.87;1622529;87;21631;-76
2021/12/14 06:19:49;;;;;;;15.30;9.23;;;;;;;0.12;100.00;100100.63;1609615;87;20985;-77
2021/12/14 06:22:19;;;;;;;21.60;9.88;;;;;;;0.13;100.00;100101.45;1628045;87;21029;-77
2021/12/14 06:24:52;;;;;;;18.40;10.80;;;;;;;0.14;100.00;100099.86;1632299;86;21058;-76
2021/12/14 06:27:31;;;;;;;19.45;11.05;;;;;;;0.15;100.00;100100.16;1603013;88;21596;-77
2021/12/14 06:30:09;;;;;;;17.67;9.85;;;;;;;0.18;100.00;100098.86;1590358;89;21012;-75
2021/12/14 06:33:02;;;;;;;16.95;10.18;;;;;;;0.19;100.00;100108.08;1592259;89;20991;-77
2021/12/14 06:35:40;;;;;;;20.27;10.55;;;;;;;0.19;100.00;100103.21;1570023;91;20945;-79
2021/12/14 06:38:30;;;;;;;20.52;11.40;;;;;;;0.20;100.00;100100.80;1589855;88;21052;-75
2021/12/14 06:41:14;;;;;;;20.72;12.33;;;;;;;0.22;100.00;100099.52;1563521;90;21280;-77
2021/12/14 06:43:56;;;;;;;26.55;13.50;;;;;;;0.25;100.00;100102.27;1567142;90;21120;-78
2021/12/14 06:46:40;;;;;;;19.55;11.55;;;;;;;0.25;100.00;100108.50;1569033;89;21108;-77
2021/12/14 06:49:13;;;;;;;20.08;11.35;;;;;;;0.28;100.00;100105.33;1554443;90;21637;-76
2021/12/14 06:51:49;;;;;;;19.32;10.63;;;;;;;0.28;100.00;100103.98;1590591;88;21486;-74
2021/12/14 06:54:24;;;;;;;20.12;12.05;;;;;;;0.29;100.00;100102.92;1607457;88;21233;-76
2021/12/14 06:57:00;;;;;;;19.98;12.03;;;;;;;0.31;100.00;100105.39;1587442;87;21102;-86
2021/12/14 06:59:36;;;;;;;18.20;11.45;;;;;;;0.33;100.00;100101.92;1609455;87;21490;-77
2021/12/14 07:02:09;;;;;;;17.27;10.53;;;;;;;0.35;100.00;100103.86;1605257;87;21104;-79
2021/12/14 07:04:49;;;;;;;19.60;11.30;;;;;;;0.35;100.00;100101.16;1595007;88;21168;-78
2021/12/14 07:07:25;;;;;;;17.15;10.53;;;;;;;0.35;100.00;100107.91;1607990;87;21463;-76
2021/12/14 07:10:01;;;;;;;20.08;11.18;;;;;;;0.34;100.00;100106.27;1602962;86;21041;-77
2021/12/14 07:12:33;;;;;;;18.57;10.80;;;;;;;0.33;100.00;100114.90;1637786;86;21190;-75
2021/12/14 07:15:22;;;;;;;20.52;11.35;;;;;;;0.34;100.00;100115.72;1639407;86;21132;-75
2021/12/14 07:18:03;;;;;;;19.95;10.93;;;;;;;0.37;100.00;100114.43;1627844;86;21075;-73
2021/12/14 07:20:40;;;;;;;20.32;11.05;;;;;;;0.33;100.00;100116.25;1628132;86;21178;-74
2021/12/14 07:23:36;;;;;;;22.90;13.05;;;;;;;0.31;100.00;100108.91;1617874;86;21091;-75
2021/12/14 07:26:14;;;;;;;20.37;11.38;;;;;;;0.30;100.00;100122.12;1633794;86;21089;-74
2021/12/14 07:28:44;;;;;;;19.82;11.25;;;;;;;0.29;100.00;100119.66;1651799;86;21491;-74
2021/12/14 07:31:22;;;;;;;20.50;12.20;;;;;;;0.26;100.00;100122.82;1614502;87;20928;-73
2021/12/14 07:33:56;;;;;;;17.80;10.20;;;;;;;0.29;100.00;100122.35;1649504;86;21096;-73
2021/12/14 07:36:32;;;;;;;19.32;10.68;;;;;;;0.33;100.00;100120.83;1638736;86;21071;-73
2021/12/14 07:39:11;;;;;;;18.27;9.50;;;;;;;0.35;100.00;100121.42;1632890;86;21081;-75
2021/12/14 07:41:54;;;;;;;12.55;7.35;;;;;;;0.37;100.00;100122.00;1627820;86;21440;-73
2021/12/14 07:44:32;;;;;;;17.10;9.40;;;;;;;0.39;100.00;100124.47;1638778;86;20969;-72
2021/12/14 07:47:19;;;;;;;14.83;8.83;;;;;;;0.35;100.00;100129.52;1634412;86;21510;-74
2021/12/14 07:49:54;;;;;;;14.90;9.03;;;;;;;0.37;100.00;100134.16;1592583;89;21649;-74
2021/12/14 07:52:21;;;;;;;14.55;8.75;;;;;;;0.39;100.00;100135.27;1592449;88;21146;-75
2021/12/14 07:55:01;;;;;;;15.20;8.25;;;;;;;0.38;100.00;100130.93;1581271;89;21196;-76
2021/12/14 07:57:38;;;;;;;12.85;8.28;;;;;;;0.39;100.00;100129.34;1583469;89;21098;-75
2021/12/14 08:00:24;;;;;;;14.38;8.70;;;;;;;0.44;100.00;100129.46;1592034;89;21516;-75
2021/12/14 08:03:01;;;;;;;18.70;10.50;;;;;;;0.50;100.00;100133.10;1616509;87;21620;-75
2021/12/14 08:05:41;;;;;;;18.37;10.55;;;;;;;0.55;100.00;100134.04;1602605;88;20974;-74
2021/12/14 08:08:30;;;;;;;18.13;10.00;;;;;;;0.59;100.00;100135.18;1583422;88;21763;-74
2021/12/14 08:11:28;;;;;;;18.87;10.70;;;;;;;0.60;100.00;100134.12;1624261;86;21596;-74
2021/12/14 08:13:26;;;;;;;17.12;9.70;;;;;;;0.59;100.00;100135.71;1607486;87;21212;-73
2021/12/14 08:15:58;;;;;;;15.58;9.08;;;;;;;0.56;100.00;100127.58;1617883;87;20978;-75
2021/12/14 08:18:30;;;;;;;19.32;10.35;;;;;;;0.63;100.00;100133.66;1631627;86;20988;-73
2021/12/14 08:21:11;;;;;;;15.83;9.18;;;;;;;0.65;100.00;100132.89;1608677;87;21105;-79
2021/12/14 08:23:44;;;;;;;16.50;9.73;;;;;;;0.70;100.00;100132.17;1608834;88;21034;-74
2021/12/14 08:26:17;;;;;;;16.48;9.70;;;;;;;0.74;100.00;100131.17;1610870;87;21185;-76
2021/12/14 08:28:51;;;;;;;16.73;9.48;;;;;;;0.75;100.00;100134.17;1607557;87;21092;-76
2021/12/14 08:31:19;;;;;;;23.73;11.75;;;;;;;0.80;100.00;100129.70;1608074;87;21069;-75
2021/12/14 08:33:56;;;;;;;17.82;10.20;;;;;;;0.79;100.00;100124.00;1609123;87;21718;-75
2021/12/14 08:36:22;;;;;;;20.10;10.80;;;;;;;0.85;100.00;100128.98;1606296;87;21202;-79
2021/12/14 08:39:09;;;;;;;18.05;9.43;;;;;;;0.95;100.00;100125.16;1610541;87;21176;-80
2021/12/14 08:41:37;;;;;;;16.20;10.43;;;;;;;0.94;100.00;100124.86;1612467;87;21006;-76
2021/12/14 08:44:10;;;;;;;17.02;9.05;;;;;;;0.89;100.00;100123.40;1611696;88;21023;-74
2021/12/14 08:46:34;;;;;;;16.23;10.40;;;;;;;0.88;100.00;100124.45;1607437;88;21023;-73
2021/12/14 08:49:03;;;;;;;17.65;9.90;;;;;;;0.88;100.00;100127.16;1609523;87;21196;-68
2021/12/14 08:51:40;;;;;;;16.85;10.00;;;;;;;0.88;100.00;100123.93;1609040;88;22206;-68
2021/12/14 08:54:16;;;;;;;15.20;8.90;;;;;;;0.91;100.00;100121.28;1634447;86;21022;-71
2021/12/14 08:56:51;;;;;;;17.65;9.90;;;;;;;0.96;100.00;100122.73;1630696;86;20973;-73
2021/12/14 08:59:19;;;;;;;20.70;10.75;;;;;;;0.93;100.00;100115.92;1625176;86;21041;-73
2021/12/14 09:01:48;;;;;;;28.20;11.40;;;;;;;0.89;100.00;100113.41;1624864;86;21091;-73
2021/12/14 09:04:30;;;;;;;18.00;10.72;;;;;;;0.85;100.00;100114.13;1631294;86;21437;-72
2021/12/14 09:07:14;;;;;;;18.37;10.38;;;;;;;0.80;100.00;100110.78;1633460;86;21126;-72
2021/12/14 09:09:43;;;;;;;19.52;10.70;;;;;;;0.82;100.00;100111.89;1636276;86;21112;-73
2021/12/14 09:12:15;;;;;;;16.55;10.00;;;;;;;0.78;100.00;100110.73;1629947;86;21753;-73
2021/12/14 09:14:45;;;;;;;17.67;10.13;;;;;;;0.71;100.00;100110.85;1641382;86;21062;-77
2021/12/14 09:17:19;;;;;;;20.85;10.13;;;;;;;0.70;100.00;100112.44;1613335;87;21466;-80
2021/12/14 09:19:53;;;;;;;24.10;11.22;;;;;;;0.73;100.00;100109.27;1629435;86;21043;-79
2021/12/14 09:22:31;;;;;;;24.65;11.68;;;;;;;0.77;100.00;100113.95;1632292;86;21194;-72
2021/12/14 09:25:06;;;;;;;18.75;9.48;;;;;;;0.78;100.00;100113.42;1630345;86;21604;-68
2021/12/14 09:27:36;;;;;;;19.07;10.25;;;;;;;0.74;100.00;100116.31;1602659;88;21030;-73
2021/12/14 09:30:09;;;;;;;21.82;11.12;;;;;;;0.72;100.00;100113.02;1605853;88;21192;-69
2021/12/14 09:32:39;;;;;;;16.48;9.68;;;;;;;0.73;100.00;100121.42;1593599;88;21471;-76
2021/12/14 09:35:09;;;;;;;20.72;10.75;;;;;;;0.72;100.00;100113.84;1595496;88;21021;-72
2021/12/14 09:37:39;;;;;;;22.77;10.40;;;;;;;0.68;100.00;100119.44;1617839;87;21454;-72
2021/12/14 09:40:14;;;;;;;19.07;10.88;;;;;;;0.69;100.00;100116.20;1617330;88;20947;-72
2021/12/14 09:42:47;;;;;;;21.15;12.28;;;;;;;0.69;100.00;100116.20;1615006;87;21167;-71
2021/12/14 09:45:25;;;;;;;21.68;12.07;;;;;;;0.75;100.00;100112.55;1630208;86;21030;-71
2021/12/14 09:47:57;;;;;;;18.40;10.70;;;;;;;0.79;100.00;100120.48;1636866;86;21168;-70
2021/12/14 09:50:28;;;;;;;19.00;10.28;;;;;;;0.81;100.00;100112.95;1636506;86;21001;-72
2021/12/14 09:52:59;;;;;;;19.12;11.50;;;;;;;0.76;100.00;100108.79;1622604;86;21007;-73
2021/12/14 09:55:37;;;;;;;18.17;11.00;;;;;;;0.70;100.00;100113.27;1632799;86;21138;-73
2021/12/14 09:58:19;;;;;;;18.02;10.63;;;;;;;0.69;100.00;100109.45;1611644;86;20967;-73
2021/12/14 10:00:56;;;;;;;20.97;11.25;;;;;;;0.69;100.00;100108.09;1634867;86;21578;-72
2021/12/14 10:03:30;;;;;;;19.70;10.98;;;;;;;0.74;100.00;100108.20;1646469;86;20982;-73
2021/12/14 10:06:03;;;;;;;19.67;11.40;;;;;;;0.75;100.00;100105.80;1641893;86;21606;-73
2021/12/14 10:08:43;;;;;;;17.87;11.35;;;;;;;0.74;100.00;100112.26;1638225;86;21071;-72
2021/12/14 10:11:34;;;;;;;22.48;11.97;;;;;;;0.77;100.00;100111.78;1633381;86;20988;-73
2021/12/14 10:13:56;;;;;;;26.02;13.45;;;;;;;0.82;100.00;100108.66;1626392;86;21032;-73
2021/12/14 10:16:27;;;;;;;21.15;12.73;;;;;;;0.83;100.00;100102.20;1630265;85;21602;-74
2021/12/14 10:19:05;;;;;;;22.00;13.08;;;;;;;0.84;100.00;100093.56;1627949;86;21154;-75
2021/12/14 10:21:45;;;;;;;19.57;12.28;;;;;;;0.86;100.00;100091.44;1636580;86;21855;-75
2021/12/14 10:24:12;;;;;;;24.82;14.28;;;;;;;0.86;100.00;100092.79;1630596;86;21100;-73
2021/12/14 10:26:43;;;;;;;27.42;13.03;;;;;;;0.86;100.00;100090.91;1633037;86;21575;-74
2021/12/14 10:29:10;;;;;;;31.48;15.23;;;;;;;0.86;100.00;100091.44;1631685;86;21128;-74
2021/12/14 10:31:49;;;;;;;24.82;15.08;;;;;;;0.86;100.00;100095.49;1632409;86;21477;-75
2021/12/14 10:34:24;;;;;;;23.55;13.85;;;;;;;0.85;100.00;100096.55;1645134;86;20934;-75
2021/12/14 10:37:07;;;;;;;20.00;12.05;;;;;;;0.86;100.00;100094.96;1653344;86;21116;-75
2021/12/14 10:45:04;;;;;;;26.97;13.55;;;;;;;0.91;100.00;100092.89;1646229;86;21057;-76
2021/12/14 10:47:34;;;;;;;21.07;11.57;;;;;;;0.94;100.00;100093.23;1657120;86;21201;-75
2021/12/14 10:50:05;;;;;;;22.70;11.95;;;;;;;0.89;100.00;100092.31;1653696;86;21062;-76
2021/12/14 10:52:40;;;;;;;42.15;13.53;;;;;;;0.88;100.00;100088.78;1635690;86;20984;-75
2021/12/14 10:55:21;;;;;;;22.13;11.38;;;;;;;0.88;100.00;100089.31;1657262;85;21057;-76
2021/12/14 10:57:57;;;;;;;22.73;12.25;;;;;;;0.87;100.00;100087.14;1642980;86;20981;-77
2021/12/14 11:00:31;;;;;;;25.62;13.30;;;;;;;0.82;100.00;100092.98;1647288;86;21550;-75
2021/12/14 11:03:11;;;;;;;24.85;13.60;;;;;;;0.74;100.00;100082.53;1655241;86;20934;-75
2021/12/14 11:05:43;;;;;;;24.27;12.95;;;;;;;0.71;100.00;100081.66;1655503;85;20991;-74
2021/12/14 11:08:24;;;;;;;27.85;12.13;;;;;;;0.72;100.00;100079.25;1655535;86;20994;-74
2021/12/14 11:10:44;;;;;;;27.05;12.33;;;;;;;0.69;100.00;100068.38;1643657;86;20958;-75
2021/12/14 11:13:12;;;;;;;27.87;12.10;;;;;;;0.71;100.00;100072.20;1607324;87;21191;-74
2021/12/14 11:15:52;;;;;;;25.85;14.33;;;;;;;0.73;100.00;100071.43;1636264;86;20951;-75
2021/12/14 11:18:25;;;;;;;22.35;11.88;;;;;;;0.74;100.00;100074.42;1629785;86;21131;-74
2021/12/14 11:21:04;;;;;;;24.35;12.65;;;;;;;0.74;100.00;100066.31;1640644;86;21141;-74
2021/12/14 11:23:37;;;;;;;23.47;13.05;;;;;;;0.74;100.00;100070.38;1610889;86;20983;-77
2021/12/14 11:26:19;;;;;;;24.43;12.00;;;;;;;0.77;100.00;100069.36;1623751;86;21857;-77
2021/12/14 11:28:59;;;;;;;25.40;12.23;;;;;;;0.77;100.00;100068.55;1612980;86;21048;-78
2021/12/14 11:31:38;;;;;;;21.95;12.53;;;;;;;0.77;100.00;100073.95;1628325;86;20886;-77
2021/12/14 11:34:12;;;;;;;22.93;13.03;;;;;;;0.77;100.00;100068.02;1635263;86;21077;-77
2021/12/14 11:36:54;;;;;;;21.02;11.68;;;;;;;0.78;100.00;100072.89;1627748;86;21045;-78
2021/12/14 11:39:28;;;;;;;23.55;13.70;;;;;;;0.77;100.00;100065.84;1636206;86;21147;-81
2021/12/14 11:42:08;;;;;;;23.77;12.05;;;;;;;0.75;100.00;100078.77;1627840;86;21434;-78
2021/12/14 11:44:50;;;;;;;21.73;11.80;;;;;;;0.77;100.00;100078.00;1628378;86;21034;-77
2021/12/14 11:50:40;;;;;;;22.17;11.25;;;;;;;0.74;100.00;100072.55;1636243;86;20996;-77
2021/12/14 11:53:14;;;;;;;19.55;10.58;;;;;;;0.71;100.00;100083.83;1607431;86;21058;-76
2021/12/14 11:56:02;;;;;;;19.95;10.50;;;;;;;0.69;100.00;100081.89;1627469;86;21155;-76
2021/12/14 11:58:44;;;;;;;21.30;10.70;;;;;;;0.70;100.00;100084.89;1635872;86;21103;-77
2021/12/14 12:01:46;;;;;;;19.52;10.43;;;;;;;0.71;100.00;100075.72;1635905;84;21087;-77
2021/12/14 12:04:17;;;;;;;25.15;11.93;;;;;;;0.71;100.00;100081.66;1627789;86;21068;-76
2021/12/14 12:09:47;;;;;;;19.60;10.23;;;;;;;0.73;100.00;100079.54;1640954;86;21038;-77
2021/12/14 12:12:34;;;;;;;20.95;11.35;;;;;;;0.75;100.00;100082.30;1637982;86;21000;-77
2021/12/14 12:15:19;;;;;;;20.85;10.53;;;;;;;0.76;100.00;100079.88;1638767;85;21102;-78
2021/12/14 12:18:00;;;;;;;25.40;11.55;;;;;;;0.78;100.00;100082.34;1632471;86;21036;-77
2021/12/14 12:20:52;;;;;;;22.80;12.05;;;;;;;0.78;100.00;100089.11;1635526;86;21603;-77
2021/12/14 12:23:24;;;;;;;25.23;13.45;;;;;;;0.81;100.00;100088.63;1626251;86;21016;-77
2021/12/14 12:25:59;;;;;;;34.60;14.05;;;;;;;0.82;100.00;100085.69;1646641;86;20993;-77
2021/12/14 12:28:42;;;;;;;40.28;16.07;;;;;;;0.80;100.00;100079.70;1615973;86;20990;-77